SWR2ZT LIPZ-LSZH
Flight info
| Callsign | SWR2ZT |
|---|---|
| Flight time | 0h 48m |
| Altitude | 32000 |
| Route | ROKIB DCT EKPIS DCT SOTOV/N0412F300 P66 KPT L856 NEGRA |
| Aircraft | A20N/M-SDE2E3FGHIJ1RWXY/LB1 |
Departure
| Time | 2026-04-26 13:53 |
|---|---|
| Airport | Venice Marco Polo Airport (LIPZ) |
Arrival
| Time | 2026-04-26 14:41 |
|---|---|
| Airport | Zürich Airport (LSZH) |
| Time | Latitude | Longitude | Altitude | Speed | Heading |
|---|---|---|---|---|---|
| 2026-04-26 13:31 | 45.50114 | 12.33991 | 13 ft | 0 kts | 311° |
| 2026-04-26 13:45 | 45.50111 | 12.33996 | 13 ft | 2 kts | 311° |
| 2026-04-26 13:45 | 45.50101 | 12.34013 | 13 ft | 2 kts | 311° |
| 2026-04-26 13:45 | 45.50091 | 12.34029 | 13 ft | 2 kts | 311° |
| 2026-04-26 13:45 | 45.50081 | 12.34045 | 13 ft | 2 kts | 311° |
| 2026-04-26 13:46 | 45.50075 | 12.34055 | 13 ft | 1 kts | 311° |
| 2026-04-26 13:46 | 45.50072 | 12.34069 | 13 ft | 1 kts | 246° |
| 2026-04-26 13:46 | 45.50076 | 12.34077 | 13 ft | 1 kts | 212° |
| 2026-04-26 13:46 | 45.50080 | 12.34081 | 13 ft | 0 kts | 221° |
| 2026-04-26 13:49 | 45.50079 | 12.34079 | 13 ft | 1 kts | 221° |
| 2026-04-26 13:49 | 45.50072 | 12.34071 | 13 ft | 2 kts | 221° |
| 2026-04-26 13:49 | 45.50046 | 12.34038 | 13 ft | 8 kts | 222° |
| 2026-04-26 13:49 | 45.49985 | 12.33959 | 13 ft | 11 kts | 224° |
| 2026-04-26 13:50 | 45.49914 | 12.33867 | 13 ft | 14 kts | 217° |
| 2026-04-26 13:50 | 45.49817 | 12.33824 | 13 ft | 14 kts | 191° |
| 2026-04-26 13:50 | 45.49713 | 12.33794 | 13 ft | 15 kts | 192° |
| 2026-04-26 13:50 | 45.49607 | 12.33761 | 13 ft | 14 kts | 192° |
| 2026-04-26 13:51 | 45.49587 | 12.33754 | 13 ft | 0 kts | 194° |
| 2026-04-26 13:51 | 45.49585 | 12.33754 | 13 ft | 1 kts | 194° |
| 2026-04-26 13:51 | 45.49568 | 12.33747 | 12 ft | 4 kts | 193° |
| 2026-04-26 13:51 | 45.49525 | 12.33738 | 12 ft | 8 kts | 180° |
| 2026-04-26 13:52 | 45.49461 | 12.33773 | 12 ft | 11 kts | 149° |
| 2026-04-26 13:52 | 45.49453 | 12.33827 | 12 ft | 0 kts | 41° |
| 2026-04-26 13:52 | 45.49476 | 12.33855 | 13 ft | 27 kts | 41° |
| 2026-04-26 13:52 | 45.49827 | 12.34307 | 14 ft | 106 kts | 42° |
| 2026-04-26 13:53 | 45.50554 | 12.35236 | 22 ft | 168 kts | 43° |
| 2026-04-26 13:53 | 45.51447 | 12.36415 | 534 ft | 179 kts | 46° |
| 2026-04-26 13:53 | 45.52323 | 12.37662 | 1329 ft | 181 kts | 46° |
| 2026-04-26 13:53 | 45.53194 | 12.38905 | 2175 ft | 178 kts | 46° |
| 2026-04-26 13:54 | 45.53823 | 12.40344 | 2893 ft | 178 kts | 83° |
| 2026-04-26 13:54 | 45.53685 | 12.42076 | 3629 ft | 179 kts | 105° |
| 2026-04-26 13:54 | 45.53376 | 12.43840 | 4194 ft | 192 kts | 100° |
| 2026-04-26 13:55 | 45.52928 | 12.47830 | 5393 ft | 217 kts | 98° |
| 2026-04-26 13:55 | 45.52772 | 12.49221 | 5892 ft | 220 kts | 98° |
| 2026-04-26 13:55 | 45.50573 | 12.52847 | 7554 ft | 237 kts | 170° |
| 2026-04-26 13:56 | 45.48910 | 12.52595 | 8084 ft | 254 kts | 205° |
| 2026-04-26 13:56 | 45.47548 | 12.50920 | 8576 ft | 271 kts | 240° |
| 2026-04-26 13:56 | 45.47047 | 12.48273 | 9082 ft | 286 kts | 274° |
| 2026-04-26 13:56 | 45.47638 | 12.45584 | 9822 ft | 290 kts | 301° |
| 2026-04-26 13:57 | 45.48735 | 12.43223 | 10653 ft | 294 kts | 305° |
| 2026-04-26 13:57 | 45.49925 | 12.40744 | 11148 ft | 310 kts | 304° |
| 2026-04-26 13:57 | 45.51115 | 12.38103 | 11684 ft | 324 kts | 302° |
| 2026-04-26 13:57 | 45.52291 | 12.35337 | 12462 ft | 329 kts | 301° |
| 2026-04-26 13:58 | 45.53433 | 12.32550 | 13264 ft | 332 kts | 300° |
| 2026-04-26 13:58 | 45.54579 | 12.29691 | 14032 ft | 335 kts | 300° |
| 2026-04-26 13:58 | 45.55734 | 12.26772 | 14803 ft | 339 kts | 300° |
| 2026-04-26 13:58 | 45.56879 | 12.23861 | 15556 ft | 342 kts | 300° |
| 2026-04-26 13:59 | 45.58044 | 12.20885 | 16291 ft | 346 kts | 300° |
| 2026-04-26 13:59 | 45.59224 | 12.17862 | 17012 ft | 349 kts | 300° |
| 2026-04-26 13:59 | 45.60398 | 12.14847 | 17710 ft | 352 kts | 300° |
| 2026-04-26 14:00 | 45.63992 | 12.05600 | 19751 ft | 361 kts | 300° |
| 2026-04-26 14:00 | 45.65221 | 12.02427 | 20444 ft | 363 kts | 300° |
| 2026-04-26 14:00 | 45.66037 | 12.00323 | 20888 ft | 365 kts | 300° |
| 2026-04-26 14:01 | 45.67670 | 11.96099 | 21758 ft | 369 kts | 300° |
| 2026-04-26 14:01 | 45.68917 | 11.92872 | 22405 ft | 372 kts | 300° |
| 2026-04-26 14:01 | 45.70173 | 11.89617 | 23040 ft | 375 kts | 300° |
| 2026-04-26 14:01 | 45.71516 | 11.86424 | 23645 ft | 377 kts | 308° |
| 2026-04-26 14:02 | 45.73296 | 11.83736 | 24235 ft | 379 kts | 321° |
| 2026-04-26 14:02 | 45.75519 | 11.81655 | 24836 ft | 382 kts | 332° |
| 2026-04-26 14:02 | 45.77919 | 11.79968 | 25393 ft | 386 kts | 334° |
| 2026-04-26 14:02 | 45.80351 | 11.78317 | 25913 ft | 389 kts | 334° |
| 2026-04-26 14:03 | 45.82776 | 11.76664 | 26427 ft | 392 kts | 333° |
| 2026-04-26 14:03 | 45.85262 | 11.74954 | 26957 ft | 395 kts | 333° |
| 2026-04-26 14:03 | 45.87738 | 11.73244 | 27457 ft | 398 kts | 333° |
| 2026-04-26 14:03 | 45.90259 | 11.71513 | 27944 ft | 400 kts | 334° |
| 2026-04-26 14:04 | 45.92810 | 11.69944 | 28395 ft | 404 kts | 337° |
| 2026-04-26 14:04 | 45.95441 | 11.68577 | 28821 ft | 407 kts | 340° |
| 2026-04-26 14:04 | 45.98162 | 11.67407 | 29232 ft | 410 kts | 343° |
| 2026-04-26 14:04 | 46.00938 | 11.66313 | 29635 ft | 412 kts | 343° |
| 2026-04-26 14:05 | 46.03706 | 11.65238 | 30018 ft | 415 kts | 343° |
| 2026-04-26 14:05 | 46.06502 | 11.64152 | 30375 ft | 417 kts | 343° |
| 2026-04-26 14:05 | 46.09307 | 11.63060 | 30707 ft | 420 kts | 343° |
| 2026-04-26 14:05 | 46.12170 | 11.61941 | 31028 ft | 422 kts | 343° |
| 2026-04-26 14:06 | 46.14990 | 11.60838 | 31340 ft | 424 kts | 343° |
| 2026-04-26 14:06 | 46.17873 | 11.59708 | 31711 ft | 425 kts | 343° |
| 2026-04-26 14:06 | 46.20720 | 11.58591 | 32087 ft | 425 kts | 343° |
| 2026-04-26 14:06 | 46.23559 | 11.57476 | 32191 ft | 427 kts | 342° |
| 2026-04-26 14:07 | 46.26455 | 11.56336 | 32196 ft | 427 kts | 342° |
| 2026-04-26 14:07 | 46.32183 | 11.54078 | 32210 ft | 427 kts | 342° |
| 2026-04-26 14:08 | 46.37912 | 11.51814 | 32215 ft | 427 kts | 342° |
| 2026-04-26 14:08 | 46.43663 | 11.49539 | 32212 ft | 428 kts | 342° |
| 2026-04-26 14:09 | 46.49374 | 11.47273 | 32202 ft | 427 kts | 342° |
| 2026-04-26 14:09 | 46.55122 | 11.44987 | 32207 ft | 428 kts | 342° |
| 2026-04-26 14:10 | 46.60859 | 11.42702 | 32228 ft | 428 kts | 342° |
| 2026-04-26 14:10 | 46.66562 | 11.40425 | 32246 ft | 428 kts | 342° |
| 2026-04-26 14:11 | 46.75131 | 11.36738 | 32262 ft | 426 kts | 338° |
| 2026-04-26 14:11 | 46.80565 | 11.33352 | 32272 ft | 424 kts | 331° |
| 2026-04-26 14:12 | 46.85693 | 11.29122 | 32289 ft | 422 kts | 326° |
| 2026-04-26 14:12 | 46.90678 | 11.24509 | 32294 ft | 423 kts | 325° |
| 2026-04-26 14:13 | 46.98131 | 11.17612 | 32310 ft | 423 kts | 325° |
| 2026-04-26 14:14 | 47.03086 | 11.13058 | 32314 ft | 423 kts | 325° |
| 2026-04-26 14:14 | 47.08039 | 11.08416 | 32319 ft | 422 kts | 323° |
| 2026-04-26 14:15 | 47.12719 | 11.03171 | 32318 ft | 421 kts | 319° |
| 2026-04-26 14:15 | 47.17250 | 10.97749 | 32311 ft | 421 kts | 318° |
| 2026-04-26 14:16 | 47.21767 | 10.92324 | 32311 ft | 420 kts | 318° |
| 2026-04-26 14:16 | 47.26290 | 10.86889 | 32299 ft | 421 kts | 318° |
| 2026-04-26 14:17 | 47.30821 | 10.81437 | 32282 ft | 421 kts | 318° |
| 2026-04-26 14:17 | 47.35336 | 10.75990 | 32264 ft | 421 kts | 318° |
| 2026-04-26 14:18 | 47.39937 | 10.70646 | 32255 ft | 422 kts | 322° |
| 2026-04-26 14:18 | 47.44772 | 10.65685 | 32249 ft | 423 kts | 323° |
| 2026-04-26 14:19 | 47.49607 | 10.60770 | 32247 ft | 422 kts | 323° |
| 2026-04-26 14:19 | 47.54429 | 10.55843 | 32089 ft | 424 kts | 323° |
| 2026-04-26 14:19 | 47.56847 | 10.53359 | 31543 ft | 422 kts | 323° |
| 2026-04-26 14:20 | 47.59217 | 10.50912 | 30911 ft | 420 kts | 322° |
| 2026-04-26 14:20 | 47.61605 | 10.48442 | 30248 ft | 419 kts | 323° |
| 2026-04-26 14:20 | 47.63979 | 10.45985 | 29776 ft | 413 kts | 323° |
| 2026-04-26 14:20 | 47.66320 | 10.43560 | 29328 ft | 408 kts | 323° |
| 2026-04-26 14:21 | 47.68628 | 10.41167 | 28876 ft | 404 kts | 323° |
| 2026-04-26 14:21 | 47.70905 | 10.38783 | 28409 ft | 399 kts | 320° |
| 2026-04-26 14:21 | 47.72822 | 10.35878 | 27911 ft | 390 kts | 302° |
| 2026-04-26 14:21 | 47.74012 | 10.32280 | 27440 ft | 383 kts | 285° |
| 2026-04-26 14:22 | 47.74429 | 10.28434 | 26970 ft | 379 kts | 270° |
| 2026-04-26 14:22 | 47.74365 | 10.24516 | 26525 ft | 376 kts | 268° |
| 2026-04-26 14:22 | 47.74268 | 10.20685 | 26082 ft | 373 kts | 268° |
| 2026-04-26 14:22 | 47.74171 | 10.16835 | 25625 ft | 370 kts | 268° |
| 2026-04-26 14:23 | 47.74078 | 10.13059 | 25181 ft | 368 kts | 268° |
| 2026-04-26 14:23 | 47.73986 | 10.09242 | 24720 ft | 365 kts | 268° |
| 2026-04-26 14:23 | 47.73896 | 10.05512 | 24282 ft | 362 kts | 268° |
| 2026-04-26 14:23 | 47.73806 | 10.01803 | 23845 ft | 360 kts | 268° |
| 2026-04-26 14:24 | 47.73715 | 9.98073 | 23397 ft | 358 kts | 268° |
| 2026-04-26 14:24 | 47.73624 | 9.94437 | 22962 ft | 356 kts | 268° |
| 2026-04-26 14:24 | 47.73531 | 9.90732 | 22535 ft | 354 kts | 268° |
| 2026-04-26 14:24 | 47.73441 | 9.87142 | 22101 ft | 353 kts | 268° |
| 2026-04-26 14:25 | 47.73347 | 9.83503 | 21668 ft | 351 kts | 268° |
| 2026-04-26 14:25 | 47.73254 | 9.79892 | 21242 ft | 349 kts | 268° |
| 2026-04-26 14:25 | 47.73159 | 9.76299 | 20827 ft | 347 kts | 268° |
| 2026-04-26 14:25 | 47.73064 | 9.72724 | 20407 ft | 345 kts | 268° |
| 2026-04-26 14:26 | 47.72968 | 9.69185 | 19977 ft | 344 kts | 268° |
| 2026-04-26 14:26 | 47.72872 | 9.65665 | 19549 ft | 342 kts | 268° |
| 2026-04-26 14:26 | 47.72775 | 9.62153 | 19112 ft | 341 kts | 268° |
| 2026-04-26 14:26 | 47.72675 | 9.58632 | 18669 ft | 340 kts | 268° |
| 2026-04-26 14:27 | 47.72577 | 9.55153 | 18229 ft | 339 kts | 268° |
| 2026-04-26 14:27 | 47.72477 | 9.51680 | 17809 ft | 337 kts | 268° |
| 2026-04-26 14:27 | 47.72376 | 9.48198 | 17383 ft | 336 kts | 268° |
| 2026-04-26 14:27 | 47.72275 | 9.44788 | 16972 ft | 334 kts | 268° |
| 2026-04-26 14:28 | 47.72177 | 9.41355 | 16533 ft | 333 kts | 268° |
| 2026-04-26 14:28 | 47.72092 | 9.37908 | 16077 ft | 333 kts | 269° |
| 2026-04-26 14:28 | 47.72010 | 9.34480 | 15629 ft | 332 kts | 268° |
| 2026-04-26 14:28 | 47.71927 | 9.31068 | 15189 ft | 332 kts | 268° |
| 2026-04-26 14:29 | 47.71843 | 9.27651 | 14751 ft | 331 kts | 268° |
| 2026-04-26 14:29 | 47.71759 | 9.24257 | 14296 ft | 330 kts | 268° |
| 2026-04-26 14:29 | 47.71671 | 9.20821 | 13864 ft | 330 kts | 268° |
| 2026-04-26 14:29 | 47.71585 | 9.17473 | 13430 ft | 329 kts | 268° |
| 2026-04-26 14:30 | 47.71496 | 9.14042 | 12980 ft | 327 kts | 268° |
| 2026-04-26 14:30 | 47.71408 | 9.10694 | 12567 ft | 326 kts | 268° |
| 2026-04-26 14:30 | 47.71318 | 9.07334 | 12149 ft | 324 kts | 268° |
| 2026-04-26 14:30 | 47.71229 | 9.03992 | 11714 ft | 323 kts | 268° |
| 2026-04-26 14:31 | 47.71140 | 9.00702 | 11309 ft | 322 kts | 268° |
| 2026-04-26 14:31 | 47.71048 | 8.97364 | 10893 ft | 320 kts | 268° |
| 2026-04-26 14:31 | 47.70958 | 8.94099 | 10483 ft | 318 kts | 268° |
| 2026-04-26 14:31 | 47.70867 | 8.90885 | 10356 ft | 305 kts | 268° |
| 2026-04-26 14:32 | 47.70779 | 8.87777 | 10240 ft | 293 kts | 268° |
| 2026-04-26 14:32 | 47.70695 | 8.84846 | 10012 ft | 286 kts | 268° |
| 2026-04-26 14:32 | 47.70610 | 8.81874 | 9651 ft | 285 kts | 268° |
| 2026-04-26 14:32 | 47.70525 | 8.78973 | 9291 ft | 283 kts | 268° |
| 2026-04-26 14:33 | 47.70438 | 8.76065 | 8940 ft | 282 kts | 268° |
| 2026-04-26 14:33 | 47.70352 | 8.73148 | 8569 ft | 280 kts | 268° |
| 2026-04-26 14:33 | 47.70267 | 8.70304 | 8235 ft | 279 kts | 268° |
| 2026-04-26 14:33 | 47.70181 | 8.67406 | 7897 ft | 278 kts | 268° |
| 2026-04-26 14:34 | 47.70096 | 8.64589 | 7559 ft | 277 kts | 268° |
| 2026-04-26 14:34 | 47.70008 | 8.61715 | 7207 ft | 275 kts | 269° |
| 2026-04-26 14:34 | 47.69923 | 8.58915 | 6865 ft | 274 kts | 268° |
| 2026-04-26 14:34 | 47.69835 | 8.56086 | 6527 ft | 273 kts | 268° |
| 2026-04-26 14:35 | 47.69745 | 8.53271 | 6193 ft | 272 kts | 269° |
| 2026-04-26 14:35 | 47.69656 | 8.50475 | 5850 ft | 273 kts | 268° |
| 2026-04-26 14:35 | 47.69275 | 8.47715 | 5510 ft | 276 kts | 247° |
| 2026-04-26 14:35 | 47.68265 | 8.45275 | 5193 ft | 273 kts | 235° |
| 2026-04-26 14:36 | 47.67167 | 8.42996 | 4880 ft | 271 kts | 235° |
| 2026-04-26 14:36 | 47.66074 | 8.40761 | 4628 ft | 266 kts | 234° |
| 2026-04-26 14:36 | 47.64900 | 8.38713 | 4427 ft | 258 kts | 219° |
| 2026-04-26 14:36 | 47.63374 | 8.37459 | 4222 ft | 251 kts | 196° |
| 2026-04-26 14:37 | 47.61671 | 8.37067 | 4060 ft | 241 kts | 179° |
| 2026-04-26 14:37 | 47.60059 | 8.37366 | 3976 ft | 228 kts | 156° |
| 2026-04-26 14:37 | 47.58815 | 8.38665 | 3838 ft | 214 kts | 132° |
| 2026-04-26 14:37 | 47.57825 | 8.40192 | 3839 ft | 197 kts | 133° |
| 2026-04-26 14:38 | 47.56872 | 8.41620 | 3867 ft | 194 kts | 132° |
| 2026-04-26 14:38 | 47.55932 | 8.43051 | 3597 ft | 194 kts | 133° |
| 2026-04-26 14:38 | 47.54942 | 8.44404 | 3322 ft | 189 kts | 136° |
| 2026-04-26 14:38 | 47.54293 | 8.45237 | 3085 ft | 185 kts | 135° |
| 2026-04-26 14:39 | 47.53085 | 8.46898 | 2735 ft | 168 kts | 134° |
| 2026-04-26 14:39 | 47.52253 | 8.48038 | 2456 ft | 160 kts | 136° |
| 2026-04-26 14:39 | 47.51471 | 8.49114 | 2277 ft | 146 kts | 135° |
| 2026-04-26 14:39 | 47.50736 | 8.50125 | 2086 ft | 141 kts | 135° |
| 2026-04-26 14:40 | 47.49997 | 8.51146 | 1904 ft | 149 kts | 135° |
| 2026-04-26 14:40 | 47.49253 | 8.52166 | 1731 ft | 147 kts | 135° |
| 2026-04-26 14:40 | 47.48542 | 8.53136 | 1530 ft | 136 kts | 136° |
| 2026-04-26 14:40 | 47.47839 | 8.54104 | 1407 ft | 137 kts | 135° |
| 2026-04-26 14:41 | 47.47236 | 8.54934 | 1390 ft | 97 kts | 137° |
| 2026-04-26 14:41 | 47.46795 | 8.55530 | 1393 ft | 75 kts | 137° |
| 2026-04-26 14:41 | 47.46507 | 8.55885 | 1398 ft | 38 kts | 151° |
| 2026-04-26 14:41 | 47.46287 | 8.55983 | 1403 ft | 30 kts | 168° |
| 2026-04-26 14:42 | 47.46170 | 8.55998 | 1407 ft | 12 kts | 186° |
| 2026-04-26 14:42 | 47.46085 | 8.55986 | 1408 ft | 12 kts | 185° |
| 2026-04-26 14:42 | 47.46000 | 8.55973 | 1408 ft | 12 kts | 186° |
| 2026-04-26 14:42 | 47.45912 | 8.55936 | 1408 ft | 13 kts | 199° |
| 2026-04-26 14:43 | 47.45827 | 8.55893 | 1410 ft | 12 kts | 199° |
| 2026-04-26 14:43 | 47.45737 | 8.55869 | 1410 ft | 13 kts | 186° |
| 2026-04-26 14:43 | 47.45647 | 8.55833 | 1409 ft | 14 kts | 240° |
| 2026-04-26 14:43 | 47.45650 | 8.55679 | 1407 ft | 16 kts | 276° |
| 2026-04-26 14:44 | 47.45663 | 8.55500 | 1403 ft | 18 kts | 276° |
| 2026-04-26 14:44 | 47.45635 | 8.55342 | 1401 ft | 17 kts | 185° |
| 2026-04-26 14:44 | 47.45525 | 8.55407 | 1402 ft | 16 kts | 156° |
| 2026-04-26 14:44 | 47.45423 | 8.55478 | 1403 ft | 16 kts | 157° |
| 2026-04-26 14:45 | 47.45322 | 8.55546 | 1404 ft | 15 kts | 156° |
| 2026-04-26 14:45 | 47.45251 | 8.55576 | 1404 ft | 16 kts | 167° |
| 2026-04-26 14:45 | 47.45106 | 8.55667 | 1402 ft | 18 kts | 155° |
| 2026-04-26 14:45 | 47.44987 | 8.55757 | 1401 ft | 19 kts | 142° |
| 2026-04-26 14:46 | 47.44936 | 8.55926 | 1402 ft | 17 kts | 129° |
| 2026-04-26 14:46 | 47.44878 | 8.55971 | 1401 ft | 5 kts | 202° |
| 2026-04-26 14:46 | 47.44854 | 8.55916 | 1400 ft | 7 kts | 245° |
| 2026-04-26 14:46 | 47.44839 | 8.55866 | 1399 ft | 1 kts | 246° |
| 2026-04-26 14:47 | 47.44838 | 8.55865 | 1399 ft | 0 kts | 246° |